SAS824 ESMS-ESGG
Flight info
| Callsign | SAS824 |
|---|---|
| Flight time | 0h 36m |
| Altitude | 24000 |
| Route | ERNOV N15 LASLI L997 RISMA |
| Aircraft | RJ70/M-SDFGIRWY/LB1 |
Departure
| Time | 2026-04-30 07:39 |
|---|---|
| Airport | Malmö Sturup Airport (ESMS) |
Arrival
| Time | 2026-04-30 08:15 |
|---|---|
| Airport | Göteborg Landvetter Airport (ESGG) |
| Time | Latitude | Longitude | Altitude | Speed | Heading |
|---|---|---|---|---|---|
| 2026-04-30 06:52 | 55.54092 | 13.36766 | 233 ft | 0 kts | 173° |
| 2026-04-30 07:23 | 55.54112 | 13.36762 | 233 ft | 4 kts | 173° |
| 2026-04-30 07:23 | 55.54136 | 13.36757 | 233 ft | 1 kts | 173° |
| 2026-04-30 07:23 | 55.54157 | 13.36746 | 232 ft | 4 kts | 128° |
| 2026-04-30 07:23 | 55.54158 | 13.36707 | 231 ft | 3 kts | 83° |
| 2026-04-30 07:24 | 55.54157 | 13.36699 | 231 ft | 0 kts | 83° |
| 2026-04-30 07:28 | 55.54158 | 13.36703 | 231 ft | 1 kts | 83° |
| 2026-04-30 07:28 | 55.54160 | 13.36745 | 232 ft | 5 kts | 83° |
| 2026-04-30 07:29 | 55.54163 | 13.36786 | 232 ft | 5 kts | 83° |
| 2026-04-30 07:29 | 55.54167 | 13.36850 | 232 ft | 5 kts | 83° |
| 2026-04-30 07:29 | 55.54171 | 13.36916 | 231 ft | 6 kts | 83° |
| 2026-04-30 07:29 | 55.54176 | 13.36984 | 231 ft | 6 kts | 83° |
| 2026-04-30 07:30 | 55.54189 | 13.37086 | 232 ft | 0 kts | 64° |
| 2026-04-30 07:31 | 55.54190 | 13.37090 | 231 ft | 1 kts | 64° |
| 2026-04-30 07:31 | 55.54196 | 13.37114 | 231 ft | 3 kts | 65° |
| 2026-04-30 07:31 | 55.54201 | 13.37163 | 231 ft | 5 kts | 96° |
| 2026-04-30 07:31 | 55.54179 | 13.37208 | 231 ft | 6 kts | 157° |
| 2026-04-30 07:32 | 55.54132 | 13.37223 | 231 ft | 8 kts | 173° |
| 2026-04-30 07:32 | 55.54069 | 13.37236 | 232 ft | 10 kts | 173° |
| 2026-04-30 07:32 | 55.53992 | 13.37252 | 231 ft | 12 kts | 173° |
| 2026-04-30 07:32 | 55.53903 | 13.37270 | 231 ft | 14 kts | 173° |
| 2026-04-30 07:33 | 55.53801 | 13.37291 | 231 ft | 16 kts | 173° |
| 2026-04-30 07:33 | 55.53688 | 13.37315 | 233 ft | 17 kts | 173° |
| 2026-04-30 07:33 | 55.53565 | 13.37340 | 232 ft | 18 kts | 173° |
| 2026-04-30 07:33 | 55.53434 | 13.37367 | 231 ft | 20 kts | 173° |
| 2026-04-30 07:34 | 55.53295 | 13.37396 | 231 ft | 21 kts | 173° |
| 2026-04-30 07:34 | 55.53150 | 13.37426 | 231 ft | 21 kts | 173° |
| 2026-04-30 07:34 | 55.52998 | 13.37456 | 234 ft | 22 kts | 173° |
| 2026-04-30 07:34 | 55.52841 | 13.37488 | 231 ft | 23 kts | 173° |
| 2026-04-30 07:35 | 55.52679 | 13.37523 | 233 ft | 23 kts | 173° |
| 2026-04-30 07:35 | 55.52519 | 13.37556 | 231 ft | 23 kts | 173° |
| 2026-04-30 07:35 | 55.52395 | 13.37653 | 231 ft | 17 kts | 143° |
| 2026-04-30 07:35 | 55.52356 | 13.37704 | 232 ft | 0 kts | 144° |
| 2026-04-30 07:37 | 55.52351 | 13.37710 | 232 ft | 3 kts | 143° |
| 2026-04-30 07:37 | 55.52319 | 13.37755 | 233 ft | 8 kts | 130° |
| 2026-04-30 07:37 | 55.52316 | 13.37835 | 237 ft | 5 kts | 69° |
| 2026-04-30 07:37 | 55.52343 | 13.37882 | 238 ft | 7 kts | 12° |
| 2026-04-30 07:38 | 55.52358 | 13.37883 | 238 ft | 0 kts | 356° |
| 2026-04-30 07:38 | 55.52375 | 13.37881 | 238 ft | 21 kts | 354° |
| 2026-04-30 07:38 | 55.52824 | 13.37785 | 239 ft | 105 kts | 353° |
| 2026-04-30 07:38 | 55.53705 | 13.37561 | 485 ft | 144 kts | 348° |
| 2026-04-30 07:39 | 55.54721 | 13.37279 | 1245 ft | 139 kts | 348° |
| 2026-04-30 07:39 | 55.55664 | 13.36960 | 1657 ft | 145 kts | 345° |
| 2026-04-30 07:39 | 55.56706 | 13.36703 | 2333 ft | 160 kts | 351° |
| 2026-04-30 07:39 | 55.57907 | 13.36492 | 2854 ft | 186 kts | 351° |
| 2026-04-30 07:40 | 55.59146 | 13.35941 | 3903 ft | 185 kts | 341° |
| 2026-04-30 07:40 | 55.60409 | 13.35179 | 3915 ft | 192 kts | 340° |
| 2026-04-30 07:40 | 55.61720 | 13.34336 | 4155 ft | 208 kts | 339° |
| 2026-04-30 07:40 | 55.63128 | 13.33398 | 4578 ft | 225 kts | 339° |
| 2026-04-30 07:41 | 55.64633 | 13.32359 | 4978 ft | 240 kts | 339° |
| 2026-04-30 07:41 | 55.66227 | 13.31244 | 5429 ft | 252 kts | 339° |
| 2026-04-30 07:41 | 55.67873 | 13.30101 | 6038 ft | 256 kts | 340° |
| 2026-04-30 07:41 | 55.69536 | 13.28946 | 6704 ft | 258 kts | 340° |
| 2026-04-30 07:42 | 55.71229 | 13.27878 | 7315 ft | 259 kts | 346° |
| 2026-04-30 07:42 | 55.72986 | 13.27137 | 7888 ft | 260 kts | 350° |
| 2026-04-30 07:42 | 55.74763 | 13.26476 | 8468 ft | 261 kts | 351° |
| 2026-04-30 07:42 | 55.76550 | 13.25845 | 9123 ft | 262 kts | 352° |
| 2026-04-30 07:43 | 55.78354 | 13.25234 | 9791 ft | 265 kts | 352° |
| 2026-04-30 07:43 | 55.80170 | 13.24620 | 10508 ft | 266 kts | 353° |
| 2026-04-30 07:43 | 55.81995 | 13.23982 | 11232 ft | 268 kts | 352° |
| 2026-04-30 07:43 | 55.83830 | 13.23336 | 11993 ft | 270 kts | 352° |
| 2026-04-30 07:44 | 55.85677 | 13.22678 | 12771 ft | 272 kts | 352° |
| 2026-04-30 07:44 | 55.87541 | 13.22007 | 13549 ft | 274 kts | 352° |
| 2026-04-30 07:44 | 55.89420 | 13.21332 | 14323 ft | 277 kts | 352° |
| 2026-04-30 07:44 | 55.91285 | 13.20649 | 14980 ft | 279 kts | 352° |
| 2026-04-30 07:45 | 55.93165 | 13.19720 | 15590 ft | 287 kts | 338° |
| 2026-04-30 07:45 | 55.94677 | 13.17269 | 16172 ft | 306 kts | 311° |
| 2026-04-30 07:45 | 55.95813 | 13.14003 | 16724 ft | 312 kts | 309° |
| 2026-04-30 07:45 | 55.96941 | 13.10667 | 17229 ft | 316 kts | 308° |
| 2026-04-30 07:46 | 55.98091 | 13.07300 | 17735 ft | 319 kts | 309° |
| 2026-04-30 07:46 | 55.99263 | 13.03921 | 18266 ft | 321 kts | 309° |
| 2026-04-30 07:46 | 56.00470 | 13.00549 | 18763 ft | 323 kts | 310° |
| 2026-04-30 07:46 | 56.01710 | 12.97200 | 19184 ft | 324 kts | 311° |
| 2026-04-30 07:47 | 56.02971 | 12.93843 | 19591 ft | 326 kts | 311° |
| 2026-04-30 07:47 | 56.04248 | 12.90471 | 19990 ft | 328 kts | 312° |
| 2026-04-30 07:47 | 56.05543 | 12.87104 | 20371 ft | 330 kts | 313° |
| 2026-04-30 07:47 | 56.06846 | 12.83716 | 20739 ft | 332 kts | 312° |
| 2026-04-30 07:48 | 56.08151 | 12.80289 | 21108 ft | 334 kts | 312° |
| 2026-04-30 07:48 | 56.09457 | 12.76843 | 21474 ft | 336 kts | 312° |
| 2026-04-30 07:48 | 56.10771 | 12.73370 | 21838 ft | 337 kts | 312° |
| 2026-04-30 07:48 | 56.12090 | 12.69878 | 22196 ft | 340 kts | 312° |
| 2026-04-30 07:49 | 56.13417 | 12.66361 | 22547 ft | 341 kts | 312° |
| 2026-04-30 07:49 | 56.14750 | 12.62829 | 22876 ft | 343 kts | 312° |
| 2026-04-30 07:49 | 56.16104 | 12.59287 | 23209 ft | 343 kts | 314° |
| 2026-04-30 07:49 | 56.17827 | 12.56513 | 23515 ft | 327 kts | 338° |
| 2026-04-30 07:50 | 56.19885 | 12.54826 | 23835 ft | 325 kts | 343° |
| 2026-04-30 07:50 | 56.21985 | 12.53315 | 24190 ft | 324 kts | 344° |
| 2026-04-30 07:50 | 56.24105 | 12.51884 | 24381 ft | 328 kts | 345° |
| 2026-04-30 07:50 | 56.26233 | 12.50456 | 24451 ft | 321 kts | 344° |
| 2026-04-30 07:51 | 56.28316 | 12.49028 | 24475 ft | 321 kts | 344° |
| 2026-04-30 07:51 | 56.30415 | 12.47570 | 24486 ft | 329 kts | 343° |
| 2026-04-30 07:51 | 56.32580 | 12.46032 | 24492 ft | 340 kts | 343° |
| 2026-04-30 07:51 | 56.34807 | 12.44434 | 24498 ft | 350 kts | 343° |
| 2026-04-30 07:52 | 56.37094 | 12.42744 | 24502 ft | 360 kts | 342° |
| 2026-04-30 07:52 | 56.39438 | 12.41000 | 24504 ft | 369 kts | 342° |
| 2026-04-30 07:52 | 56.41841 | 12.39208 | 24503 ft | 376 kts | 342° |
| 2026-04-30 07:52 | 56.44260 | 12.37404 | 24496 ft | 376 kts | 342° |
| 2026-04-30 07:53 | 56.46679 | 12.35596 | 24488 ft | 376 kts | 342° |
| 2026-04-30 07:53 | 56.49105 | 12.33825 | 24485 ft | 376 kts | 342° |
| 2026-04-30 07:53 | 56.51528 | 12.32031 | 24485 ft | 376 kts | 342° |
| 2026-04-30 07:53 | 56.53951 | 12.30248 | 24484 ft | 375 kts | 342° |
| 2026-04-30 07:54 | 56.56368 | 12.28466 | 24478 ft | 376 kts | 342° |
| 2026-04-30 07:54 | 56.58793 | 12.26683 | 24477 ft | 376 kts | 342° |
| 2026-04-30 07:54 | 56.61218 | 12.24897 | 24456 ft | 377 kts | 341° |
| 2026-04-30 07:54 | 56.63648 | 12.23088 | 24466 ft | 378 kts | 341° |
| 2026-04-30 07:55 | 56.66082 | 12.21256 | 24473 ft | 379 kts | 341° |
| 2026-04-30 07:55 | 56.68516 | 12.19417 | 24474 ft | 379 kts | 341° |
| 2026-04-30 07:55 | 56.70946 | 12.17578 | 24474 ft | 378 kts | 341° |
| 2026-04-30 07:55 | 56.73352 | 12.15803 | 24475 ft | 378 kts | 341° |
| 2026-04-30 07:56 | 56.75788 | 12.13972 | 24474 ft | 379 kts | 341° |
| 2026-04-30 07:56 | 56.78225 | 12.12128 | 24475 ft | 379 kts | 341° |
| 2026-04-30 07:56 | 56.80666 | 12.10314 | 24475 ft | 378 kts | 341° |
| 2026-04-30 07:56 | 56.83100 | 12.08501 | 24474 ft | 377 kts | 341° |
| 2026-04-30 07:57 | 56.85527 | 12.06686 | 24473 ft | 377 kts | 341° |
| 2026-04-30 07:57 | 56.87957 | 12.04866 | 24473 ft | 378 kts | 341° |
| 2026-04-30 07:57 | 56.90389 | 12.03040 | 24470 ft | 378 kts | 341° |
| 2026-04-30 07:57 | 56.92862 | 12.01433 | 24468 ft | 376 kts | 347° |
| 2026-04-30 07:58 | 56.95403 | 12.00345 | 24469 ft | 374 kts | 351° |
| 2026-04-30 07:58 | 56.97962 | 11.99502 | 24469 ft | 374 kts | 353° |
| 2026-04-30 07:58 | 57.00537 | 11.98762 | 24470 ft | 375 kts | 354° |
| 2026-04-30 07:58 | 57.03122 | 11.98078 | 24470 ft | 375 kts | 355° |
| 2026-04-30 07:59 | 57.05692 | 11.97709 | 24445 ft | 361 kts | 360° |
| 2026-04-30 07:59 | 57.08187 | 11.97646 | 23760 ft | 357 kts | 1° |
| 2026-04-30 07:59 | 57.10656 | 11.97683 | 23080 ft | 352 kts | 2° |
| 2026-04-30 08:00 | 57.15508 | 11.97774 | 21710 ft | 346 kts | 2° |
| 2026-04-30 08:00 | 57.17904 | 11.97815 | 21051 ft | 343 kts | 2° |
| 2026-04-30 08:00 | 57.20280 | 11.97825 | 20406 ft | 340 kts | 1° |
| 2026-04-30 08:00 | 57.22639 | 11.97812 | 19779 ft | 338 kts | 2° |
| 2026-04-30 08:01 | 57.24982 | 11.97824 | 19166 ft | 336 kts | 2° |
| 2026-04-30 08:01 | 57.27312 | 11.97833 | 18546 ft | 334 kts | 2° |
| 2026-04-30 08:01 | 57.29624 | 11.97820 | 17900 ft | 331 kts | 1° |
| 2026-04-30 08:01 | 57.31922 | 11.97806 | 17236 ft | 329 kts | 2° |
| 2026-04-30 08:02 | 57.36481 | 11.97798 | 16027 ft | 325 kts | 2° |
| 2026-04-30 08:02 | 57.38731 | 11.97771 | 15505 ft | 322 kts | 1° |
| 2026-04-30 08:03 | 57.43167 | 11.97734 | 14442 ft | 316 kts | 2° |
| 2026-04-30 08:03 | 57.47541 | 11.97685 | 13308 ft | 312 kts | 1° |
| 2026-04-30 08:03 | 57.49706 | 11.97663 | 12746 ft | 310 kts | 1° |
| 2026-04-30 08:04 | 57.51861 | 11.97641 | 12200 ft | 309 kts | 1° |
| 2026-04-30 08:04 | 57.54004 | 11.97623 | 11663 ft | 307 kts | 2° |
| 2026-04-30 08:04 | 57.56081 | 11.98318 | 11111 ft | 305 kts | 22° |
| 2026-04-30 08:04 | 57.57958 | 11.99969 | 10992 ft | 291 kts | 25° |
| 2026-04-30 08:05 | 57.59727 | 12.01594 | 10934 ft | 277 kts | 26° |
| 2026-04-30 08:05 | 57.61413 | 12.03210 | 10715 ft | 270 kts | 27° |
| 2026-04-30 08:05 | 57.63066 | 12.04868 | 10377 ft | 270 kts | 27° |
| 2026-04-30 08:05 | 57.64720 | 12.06538 | 9969 ft | 270 kts | 27° |
| 2026-04-30 08:06 | 57.66359 | 12.08206 | 9435 ft | 268 kts | 27° |
| 2026-04-30 08:06 | 57.67999 | 12.09849 | 8816 ft | 266 kts | 27° |
| 2026-04-30 08:06 | 57.69628 | 12.11479 | 8225 ft | 265 kts | 27° |
| 2026-04-30 08:06 | 57.71253 | 12.13093 | 7660 ft | 264 kts | 26° |
| 2026-04-30 08:07 | 57.72871 | 12.14696 | 7105 ft | 263 kts | 26° |
| 2026-04-30 08:07 | 57.74485 | 12.16292 | 6536 ft | 261 kts | 26° |
| 2026-04-30 08:07 | 57.76085 | 12.17870 | 5973 ft | 259 kts | 26° |
| 2026-04-30 08:07 | 57.77691 | 12.19437 | 5604 ft | 256 kts | 26° |
| 2026-04-30 08:08 | 57.79229 | 12.20925 | 5477 ft | 240 kts | 26° |
| 2026-04-30 08:08 | 57.80664 | 12.22327 | 5435 ft | 228 kts | 26° |
| 2026-04-30 08:08 | 57.82060 | 12.23697 | 5163 ft | 226 kts | 26° |
| 2026-04-30 08:08 | 57.83427 | 12.25070 | 4823 ft | 225 kts | 27° |
| 2026-04-30 08:09 | 57.84802 | 12.26459 | 4472 ft | 224 kts | 27° |
| 2026-04-30 08:09 | 57.86125 | 12.27971 | 4100 ft | 224 kts | 40° |
| 2026-04-30 08:09 | 57.86834 | 12.30520 | 3933 ft | 221 kts | 77° |
| 2026-04-30 08:09 | 57.87016 | 12.33308 | 3788 ft | 211 kts | 81° |
| 2026-04-30 08:10 | 57.87091 | 12.36053 | 3398 ft | 212 kts | 92° |
| 2026-04-30 08:10 | 57.86485 | 12.38572 | 2991 ft | 218 kts | 135° |
| 2026-04-30 08:10 | 57.85208 | 12.40117 | 2692 ft | 224 kts | 155° |
| 2026-04-30 08:10 | 57.83751 | 12.41135 | 2565 ft | 219 kts | 161° |
| 2026-04-30 08:11 | 57.82343 | 12.42072 | 2534 ft | 213 kts | 160° |
| 2026-04-30 08:11 | 57.80946 | 12.43033 | 2525 ft | 214 kts | 159° |
| 2026-04-30 08:11 | 57.79507 | 12.43548 | 2494 ft | 210 kts | 191° |
| 2026-04-30 08:11 | 57.78274 | 12.42291 | 2501 ft | 203 kts | 233° |
| 2026-04-30 08:12 | 57.77688 | 12.39933 | 2379 ft | 200 kts | 253° |
| 2026-04-30 08:12 | 57.77132 | 12.37550 | 2238 ft | 202 kts | 233° |
| 2026-04-30 08:12 | 57.75943 | 12.36154 | 2117 ft | 206 kts | 203° |
| 2026-04-30 08:12 | 57.74619 | 12.35172 | 2021 ft | 202 kts | 206° |
| 2026-04-30 08:13 | 57.73334 | 12.34134 | 1825 ft | 199 kts | 205° |
| 2026-04-30 08:13 | 57.72092 | 12.33135 | 1524 ft | 192 kts | 207° |
| 2026-04-30 08:13 | 57.70914 | 12.32143 | 1316 ft | 175 kts | 208° |
| 2026-04-30 08:13 | 57.69905 | 12.31260 | 1081 ft | 145 kts | 208° |
| 2026-04-30 08:14 | 57.69081 | 12.30506 | 907 ft | 122 kts | 209° |
| 2026-04-30 08:14 | 57.68344 | 12.29865 | 704 ft | 112 kts | 210° |
| 2026-04-30 08:14 | 57.67668 | 12.29235 | 574 ft | 104 kts | 208° |
| 2026-04-30 08:14 | 57.67081 | 12.28705 | 514 ft | 82 kts | 206° |
| 2026-04-30 08:15 | 57.66774 | 12.28426 | 512 ft | 60 kts | 205° |
| 2026-04-30 08:15 | 57.66635 | 12.28379 | 512 ft | 12 kts | 42° |
| 2026-04-30 08:15 | 57.66685 | 12.28491 | 512 ft | 11 kts | 56° |
| 2026-04-30 08:15 | 57.66729 | 12.28613 | 512 ft | 11 kts | 56° |
| 2026-04-30 08:16 | 57.66767 | 12.28719 | 512 ft | 9 kts | 56° |
| 2026-04-30 08:16 | 57.66806 | 12.28801 | 512 ft | 8 kts | 39° |
| 2026-04-30 08:16 | 57.66830 | 12.28878 | 513 ft | 6 kts | 99° |
| 2026-04-30 08:16 | 57.66822 | 12.28918 | 515 ft | 2 kts | 114° |
| 2026-04-30 08:17 | 57.66828 | 12.28978 | 515 ft | 8 kts | 51° |
| 2026-04-30 08:17 | 57.66881 | 12.29039 | 515 ft | 9 kts | 25° |
| 2026-04-30 08:17 | 57.66937 | 12.29089 | 515 ft | 9 kts | 26° |
| 2026-04-30 08:17 | 57.66989 | 12.29139 | 516 ft | 9 kts | 31° |
| 2026-04-30 08:18 | 57.66999 | 12.29241 | 516 ft | 9 kts | 116° |
| 2026-04-30 08:18 | 57.66980 | 12.29338 | 516 ft | 7 kts | 78° |
| 2026-04-30 08:18 | 57.66996 | 12.29409 | 516 ft | 5 kts | 111° |
| 2026-04-30 08:18 | 57.66981 | 12.29463 | 516 ft | 4 kts | 115° |
| 2026-04-30 08:19 | 57.66975 | 12.29489 | 516 ft | 0 kts | 114° |
| 2026-04-30 08:19 | 57.66972 | 12.29498 | 516 ft | 1 kts | 115° |
| 2026-04-30 08:19 | 57.66971 | 12.29502 | 516 ft | 1 kts | 115° |
| 2026-04-30 08:19 | 57.66970 | 12.29506 | 516 ft | 0 kts | 115° |